Time;durP1;ratioP1;P1;durP2;ratioP2;P2;SDS_P1;SDS_P2;PMS_P1;PMS_P2;Temp;Humidity;BMP_temperature;BMP_pressure;BME280_temperature;BME280_humidity;BME280_pressure;Samples;Min_cycle;Max_cycle;Signal;HPM_P1;HPM_P2
2022/09/12 00:00:44;;;;;;;2.20;2.10;;;16.70;74.10;16.90;96643.00;;;;5092547;28;20687;-86
2022/09/12 00:03:11;;;;;;;2.23;2.03;;;16.60;74.00;16.80;96647.00;;;;5086523;28;20619;-86
2022/09/12 00:05:42;;;;;;;2.30;2.10;;;16.60;74.00;16.80;96634.00;;;;5091287;28;20207;-86
2022/09/12 00:08:09;;;;;;;2.30;2.10;;;16.60;74.10;16.80;96634.00;;;;5091077;28;20617;-86
2022/09/12 00:10:39;;;;;;;2.50;2.40;;;16.60;74.20;16.80;96635.00;;;;5091226;28;20194;-86
2022/09/12 00:13:06;;;;;;;2.57;2.10;;;16.60;74.30;16.70;96635.00;;;;5089129;28;20195;-86
2022/09/12 00:15:39;;;;;;;2.40;2.27;;;16.50;74.30;16.70;96632.00;;;;5076365;28;20226;-86
2022/09/12 00:18:09;;;;;;;3.97;2.53;;;16.50;74.50;16.70;96634.00;;;;5086121;28;20199;-86
2022/09/12 00:20:40;;;;;;;2.77;2.67;;;16.50;74.60;16.70;96635.00;;;;5078321;28;20687;-86
2022/09/12 00:23:07;;;;;;;3.10;2.40;;;16.50;74.70;16.70;96637.00;;;;5072230;28;20188;-86
2022/09/12 00:25:34;;;;;;;2.93;2.60;;;16.40;74.80;16.60;96635.00;;;;5083441;28;20215;-86
2022/09/12 00:28:03;;;;;;;2.30;2.17;;;16.40;75.70;16.70;96631.00;;;;5089016;28;20229;-86
2022/09/12 00:30:30;;;;;;;2.60;2.40;;;16.40;75.20;16.60;96629.00;;;;5092145;28;20195;-86
2022/09/12 00:32:57;;;;;;;2.60;2.40;;;16.40;75.20;16.60;96629.00;;;;5091506;28;20366;-86
2022/09/12 00:35:25;;;;;;;2.37;2.20;;;16.40;75.20;16.60;96618.00;;;;5091443;28;20295;-86
2022/09/12 00:37:52;;;;;;;2.87;2.60;;;16.40;75.20;16.60;96630.00;;;;5075543;28;20725;-86
2022/09/12 00:40:19;;;;;;;3.43;2.67;;;16.30;75.10;16.60;96625.00;;;;5091759;28;20263;-86
2022/09/12 00:42:46;;;;;;;3.90;3.20;;;16.30;75.20;16.60;96621.00;;;;5092655;28;20203;-86
2022/09/12 00:45:24;;;;;;;2.93;2.73;;;16.30;75.20;16.50;96620.00;;;;5084789;28;20294;-86
2022/09/12 00:47:51;;;;;;;3.23;2.40;;;16.30;75.10;16.50;96620.00;;;;5091626;28;20305;-86
2022/09/12 00:50:18;;;;;;;2.70;2.50;;;16.30;75.00;16.50;96623.00;;;;5108188;28;20203;-86
2022/09/12 00:52:52;;;;;;;2.73;2.40;;;16.30;75.00;16.50;96623.00;;;;5104129;28;20227;-86
2022/09/12 00:55:24;;;;;;;3.00;2.67;;;16.30;75.20;16.50;96613.00;;;;5091905;28;20258;-86
2022/09/12 00:57:57;;;;;;;2.73;2.53;;;16.30;75.30;16.50;96618.00;;;;5077118;28;20212;-86
2022/09/12 01:00:28;;;;;;;2.77;2.57;;;16.30;76.20;16.50;96615.00;;;;5088145;28;20221;-86
2022/09/12 01:03:01;;;;;;;2.93;2.73;;;16.20;75.40;16.50;96608.00;;;;5098638;28;20199;-86
2022/09/12 01:05:31;;;;;;;2.70;2.50;;;16.20;75.30;16.50;96608.00;;;;5096318;28;20303;-86
2022/09/12 01:08:04;;;;;;;6.00;3.20;;;16.20;75.30;16.40;96595.00;;;;5077124;28;20212;-86
2022/09/12 01:10:34;;;;;;;9.63;3.00;;;16.20;75.50;16.40;96596.00;;;;5090292;28;20207;-86
2022/09/12 01:13:05;;;;;;;4.70;2.70;;;16.20;75.70;16.40;96600.00;;;;5093959;28;20250;-86
2022/09/12 01:15:33;;;;;;;3.13;2.83;;;16.20;76.50;16.40;96599.00;;;;5095294;28;20298;-86
2022/09/12 01:18:16;;;;;;;2.53;2.33;;;16.10;75.90;16.40;96599.00;;;;5091193;28;20204;-86
2022/09/12 01:21:13;;;;;;;5.20;2.43;;;16.20;76.20;16.30;96594.00;;;;5075914;28;20225;-86
2022/09/12 01:24:32;;;;;;;6.43;3.07;;;16.20;76.40;16.30;96590.00;;;;5080216;28;20238;-86
2022/09/12 01:27:50;;;;;;;2.50;2.30;;;16.10;76.40;16.20;96586.00;;;;5075252;28;20546;-86
2022/09/12 01:30:45;;;;;;;3.43;2.40;;;16.10;76.20;16.20;96586.00;;;;5079742;28;20337;-86
2022/09/12 01:33:33;;;;;;;5.23;2.50;;;16.10;76.10;16.20;96588.00;;;;5095008;28;20245;-86
2022/09/12 01:36:34;;;;;;;8.50;2.50;;;16.10;76.10;16.20;96588.00;;;;5074519;28;20842;-86
2022/09/12 01:39:05;;;;;;;3.60;1.90;;;16.10;77.00;16.20;96585.00;;;;5071437;28;20237;-86
2022/09/12 01:41:48;;;;;;;3.23;2.27;;;16.00;76.10;16.10;96587.00;;;;5092860;28;20250;-86
2022/09/12 01:44:29;;;;;;;2.37;2.10;;;16.00;76.20;16.10;96580.00;;;;5093023;28;20658;-86
2022/09/12 01:47:07;;;;;;;2.57;2.37;;;16.00;76.20;16.10;96579.00;;;;5094227;28;20199;-86
2022/09/12 01:49:46;;;;;;;3.80;2.00;;;15.90;76.20;16.10;96587.00;;;;5082031;28;20252;-86
2022/09/12 01:52:23;;;;;;;2.20;2.00;;;15.90;76.20;16.10;96589.00;;;;5081415;28;20195;-86
2022/09/12 01:54:57;;;;;;;4.00;1.80;;;15.90;76.30;16.10;96581.00;;;;5082536;28;20211;-86
2022/09/12 01:57:32;;;;;;;2.10;1.90;;;15.90;76.30;16.00;96580.00;;;;5092775;28;20277;-86
2022/09/12 02:00:07;;;;;;;2.30;1.90;;;15.90;76.40;16.00;96574.00;;;;5091201;28;20588;-86
2022/09/12 02:02:40;;;;;;;1.93;1.50;;;15.90;76.60;16.00;96578.00;;;;5094022;28;20199;-86
2022/09/12 02:05:13;;;;;;;4.37;2.13;;;15.80;76.60;16.00;96567.00;;;;5086810;28;20306;-86
2022/09/12 02:07:45;;;;;;;4.67;1.97;;;15.80;76.60;16.00;96569.00;;;;5093614;28;20282;-86
2022/09/12 02:10:17;;;;;;;2.10;1.90;;;15.80;76.50;16.00;96564.00;;;;5094486;28;20675;-86
2022/09/12 02:12:52;;;;;;;2.53;1.83;;;15.80;76.40;16.00;96560.00;;;;5097450;28;20278;-86
2022/09/12 02:15:30;;;;;;;2.10;2.00;;;15.80;76.30;15.90;96554.00;;;;5091992;28;20223;-86
2022/09/12 02:18:02;;;;;;;1.97;1.87;;;15.80;76.30;15.90;96550.00;;;;5078290;28;20223;-86
2022/09/12 02:20:34;;;;;;;2.10;2.00;;;15.80;76.50;16.00;96548.00;;;;5091371;28;20645;-86
2022/09/12 02:23:08;;;;;;;2.17;2.03;;;15.70;76.70;16.00;96548.00;;;;5080618;28;20278;-86
2022/09/12 02:25:42;;;;;;;2.10;2.00;;;15.70;76.80;16.00;96543.00;;;;5093435;28;20307;-86
2022/09/12 02:28:16;;;;;;;2.00;1.80;;;15.80;76.70;16.00;96543.00;;;;5089641;28;20219;-86
2022/09/12 02:30:56;;;;;;;5.70;2.10;;;15.70;77.30;16.00;96545.00;;;;5094006;28;20680;-86
2022/09/12 02:33:32;;;;;;;3.93;1.67;;;15.80;76.60;16.00;96541.00;;;;5092327;28;20219;-86
2022/09/12 02:36:13;;;;;;;1.87;1.77;;;15.80;76.50;15.90;96540.00;;;;5073459;28;20203;-86
2022/09/12 02:38:45;;;;;;;2.53;1.80;;;15.70;76.40;15.90;96529.00;;;;5075481;28;20234;-86
2022/09/12 02:41:17;;;;;;;2.60;1.70;;;15.70;76.50;15.90;96528.00;;;;5073882;28;20192;-86
2022/09/12 02:43:45;;;;;;;2.17;1.90;;;15.70;76.40;15.90;96530.00;;;;5086905;28;20230;-86
2022/09/12 02:46:20;;;;;;;2.20;2.00;;;15.70;76.30;15.90;96533.00;;;;5085461;28;20199;-86
2022/09/12 02:48:49;;;;;;;2.50;2.30;;;15.70;76.20;15.90;96527.00;;;;5093062;28;20225;-86
2022/09/12 02:51:17;;;;;;;3.90;2.20;;;15.70;76.10;15.90;96540.00;;;;5106525;28;20558;-86
2022/09/12 02:53:44;;;;;;;2.97;1.80;;;15.70;76.00;15.90;96536.00;;;;5085959;28;20237;-86
2022/09/12 02:56:18;;;;;;;1.97;1.87;;;15.70;76.70;15.90;96533.00;;;;5093043;28;20195;-86
2022/09/12 02:58:46;;;;;;;2.40;1.93;;;15.70;76.00;15.80;96536.00;;;;5081970;28;20206;-86
2022/09/12 03:01:29;;;;;;;2.47;1.77;;;15.70;76.00;15.80;96540.00;;;;5089081;28;20649;-86
2022/09/12 03:04:27;;;;;;;2.40;1.93;;;15.70;75.90;15.80;96539.00;;;;5086078;28;20215;-86
2022/09/12 03:07:12;;;;;;;1.70;1.60;;;15.70;75.80;15.80;96534.00;;;;5092796;28;20278;-86
2022/09/12 03:09:49;;;;;;;1.77;1.67;;;15.60;75.80;15.80;96530.00;;;;5088593;28;20207;-86
2022/09/12 03:12:36;;;;;;;1.67;1.57;;;15.60;75.70;15.70;96528.00;;;;5091752;28;20618;-86
2022/09/12 03:15:33;;;;;;;1.80;1.70;;;15.60;75.70;15.70;96534.00;;;;5081251;28;20223;-86
2022/09/12 03:18:19;;;;;;;1.57;1.47;;;15.60;75.70;15.70;96527.00;;;;5092834;28;20631;-86
2022/09/12 03:21:00;;;;;;;5.63;1.93;;;15.60;75.60;15.70;96536.00;;;;5093489;27;20270;-86
2022/09/12 03:23:35;;;;;;;9.20;2.47;;;15.50;75.70;15.60;96528.00;;;;5072418;28;20211;-86
2022/09/12 03:26:13;;;;;;;5.53;2.17;;;15.50;76.00;15.60;96530.00;;;;5090609;28;20567;-86
2022/09/12 03:28:42;;;;;;;1.67;1.57;;;15.50;76.10;15.50;96534.00;;;;5083564;28;20218;-86
2022/09/12 03:31:15;;;;;;;3.80;1.90;;;15.50;76.20;15.50;96527.00;;;;5072604;28;20286;-86
2022/09/12 03:33:43;;;;;;;5.30;2.20;;;15.40;76.30;15.50;96537.00;;;;5074821;28;20216;-86
2022/09/12 03:36:19;;;;;;;3.17;1.87;;;15.40;76.20;15.50;96534.00;;;;5075022;28;20199;-86
2022/09/12 03:38:46;;;;;;;2.40;1.53;;;15.40;76.40;15.50;96530.00;;;;5093245;28;20198;-86
2022/09/12 03:41:13;;;;;;;3.47;1.40;;;15.40;76.30;15.40;96534.00;;;;5091504;28;20287;-86
2022/09/12 03:43:40;;;;;;;1.43;1.33;;;15.40;76.40;15.40;96525.00;;;;5085985;28;20222;-86
2022/09/12 03:46:08;;;;;;;1.60;1.50;;;15.30;76.30;15.40;96533.00;;;;5090556;28;20211;-86
2022/09/12 03:48:35;;;;;;;1.50;1.40;;;15.30;76.10;15.40;96540.00;;;;5092934;28;20194;-86
2022/09/12 03:51:03;;;;;;;2.33;1.90;;;15.30;76.10;15.40;96538.00;;;;5091576;28;20215;-86
2022/09/12 03:53:32;;;;;;;1.77;1.67;;;15.30;76.10;15.40;96544.00;;;;5094511;28;20195;-85
2022/09/12 03:56:00;;;;;;;1.73;1.57;;;15.30;76.20;15.40;96534.00;;;;5094345;28;20200;-86
2022/09/12 03:58:32;;;;;;;4.43;1.90;;;15.30;76.30;15.40;96530.00;;;;5094777;28;20187;-86
2022/09/12 04:00:59;;;;;;;3.73;2.10;;;15.20;76.50;15.40;96524.00;;;;5116335;23;20318;-83
2022/09/12 04:03:26;;;;;;;2.07;1.90;;;15.20;76.50;15.40;96528.00;;;;5088190;28;20195;-84
2022/09/12 04:05:53;;;;;;;2.63;1.87;;;15.20;76.40;15.40;96529.00;;;;5073833;28;20717;-84
2022/09/12 04:08:20;;;;;;;2.03;1.93;;;15.20;76.30;15.40;96536.00;;;;5093236;28;20209;-84
2022/09/12 04:10:49;;;;;;;1.70;1.60;;;15.20;76.90;15.40;96533.00;;;;5083036;28;20314;-84
2022/09/12 04:13:16;;;;;;;1.73;1.63;;;15.20;76.00;15.30;96527.00;;;;5079937;28;20282;-84
2022/09/12 04:15:43;;;;;;;1.83;1.60;;;15.20;75.90;15.30;96533.00;;;;5091238;28;20195;-84
2022/09/12 04:18:10;;;;;;;1.20;1.20;;;15.20;76.00;15.30;96539.00;;;;5093022;28;20287;-84
2022/09/12 04:20:37;;;;;;;1.43;1.33;;;15.20;76.00;15.20;96532.00;;;;5088749;28;20695;-84
2022/09/12 04:23:04;;;;;;;1.20;1.20;;;15.10;75.90;15.20;96533.00;;;;5091208;28;20199;-84
2022/09/12 04:25:31;;;;;;;1.83;1.40;;;15.10;75.80;15.20;96536.00;;;;5088065;28;20279;-83
2022/09/12 04:28:00;;;;;;;1.50;1.40;;;15.10;75.60;15.20;96526.00;;;;5082350;28;20282;-83
2022/09/12 04:30:27;;;;;;;1.60;1.50;;;15.10;75.50;15.20;96531.00;;;;5088323;28;20226;-83
2022/09/12 04:32:54;;;;;;;1.33;1.27;;;15.10;75.40;15.10;96532.00;;;;5089224;28;20287;-83
2022/09/12 04:35:21;;;;;;;3.47;1.97;;;15.00;75.30;15.10;96530.00;;;;5088232;28;20770;-83
2022/09/12 04:37:48;;;;;;;1.53;1.43;;;15.00;75.20;15.10;96528.00;;;;5087927;28;20750;-84
2022/09/12 04:40:15;;;;;;;1.40;1.30;;;15.00;75.20;15.10;96527.00;;;;5087739;28;20841;-83
2022/09/12 04:42:42;;;;;;;1.30;1.20;;;15.00;75.30;15.10;96526.00;;;;5088159;28;20282;-83
2022/09/12 04:45:11;;;;;;;1.10;1.00;;;14.90;75.30;15.00;96529.00;;;;5084577;28;20207;-83
2022/09/12 04:47:38;;;;;;;1.10;0.93;;;14.90;75.40;15.00;96529.00;;;;5089935;28;20281;-83
2022/09/12 04:50:07;;;;;;;1.10;1.10;;;14.90;76.00;15.00;96524.00;;;;5090117;28;20237;-83
2022/09/12 04:52:34;;;;;;;1.30;1.20;;;14.90;75.20;15.00;96528.00;;;;5093117;28;20188;-83
2022/09/12 04:55:01;;;;;;;1.27;1.17;;;14.80;75.00;14.90;96525.00;;;;5091723;28;20192;-84
2022/09/12 04:57:28;;;;;;;1.67;1.30;;;14.80;74.90;14.90;96524.00;;;;5090791;28;20195;-84
2022/09/12 04:59:55;;;;;;;1.70;1.60;;;14.80;74.80;14.90;96524.00;;;;5090770;28;20235;-84
2022/09/12 05:02:24;;;;;;;1.33;1.20;;;14.80;74.90;14.90;96520.00;;;;5092111;28;20227;-84
2022/09/12 05:04:51;;;;;;;1.50;1.40;;;14.80;75.00;14.80;96527.00;;;;5091630;28;20278;-85
2022/09/12 05:07:18;;;;;;;1.63;1.10;;;14.70;74.90;14.80;96525.00;;;;5090252;28;20196;-84
2022/09/12 05:09:46;;;;;;;1.50;1.40;;;14.70;74.90;14.80;96530.00;;;;5090807;28;20248;-88
2022/09/12 05:12:13;;;;;;;1.40;1.30;;;14.70;75.00;14.80;96529.00;;;;5089700;28;20278;-89
2022/09/12 05:14:40;;;;;;;1.50;1.20;;;14.70;75.00;14.80;96533.00;;;;5084064;28;20202;-88
2022/09/12 05:17:07;;;;;;;1.33;1.23;;;14.70;75.00;14.80;96538.00;;;;5086809;28;20924;-88
2022/09/12 05:19:36;;;;;;;1.83;1.40;;;14.70;75.00;14.90;96537.00;;;;5090662;28;20215;-87
2022/09/12 05:22:05;;;;;;;1.53;1.43;;;14.60;75.10;14.90;96533.00;;;;5094158;28;20281;-89
2022/09/12 05:24:32;;;;;;;1.70;1.57;;;14.60;75.20;14.90;96533.00;;;;5094231;28;20192;-88
2022/09/12 05:26:59;;;;;;;1.53;1.47;;;14.60;75.20;14.90;96532.00;;;;5092405;28;20203;-88
2022/09/12 05:29:26;;;;;;;1.83;1.70;;;14.60;76.00;14.90;96534.00;;;;5093148;28;20226;-88
2022/09/12 05:31:54;;;;;;;2.10;2.00;;;14.60;75.40;14.90;96539.00;;;;5093034;28;20203;-89
2022/09/12 05:34:22;;;;;;;1.80;1.70;;;14.60;75.60;14.90;96535.00;;;;5094133;28;20261;-87
2022/09/12 05:36:50;;;;;;;1.80;1.70;;;14.60;75.80;14.90;96539.00;;;;5093545;28;20291;-87
2022/09/12 05:39:18;;;;;;;1.87;1.77;;;14.60;75.90;14.90;96543.00;;;;5094435;28;20221;-88
2022/09/12 05:41:46;;;;;;;1.90;1.80;;;14.60;76.00;14.90;96555.00;;;;5092999;28;20199;-89
2022/09/12 05:44:14;;;;;;;1.73;1.53;;;14.60;76.20;15.00;96563.00;;;;5091371;28;20195;-89
2022/09/12 05:46:43;;;;;;;1.50;1.40;;;14.70;76.40;15.00;96562.00;;;;5087222;28;20231;-87
2022/09/12 05:49:13;;;;;;;1.70;1.60;;;14.70;76.40;15.00;96556.00;;;;5087190;28;20571;-86
2022/09/12 05:51:44;;;;;;;1.40;1.30;;;14.70;76.60;15.00;96559.00;;;;5083863;28;20203;-86
2022/09/12 05:54:15;;;;;;;1.63;1.53;;;14.70;76.80;15.10;96556.00;;;;5093176;28;20218;-86
2022/09/12 05:56:44;;;;;;;1.47;1.37;;;14.70;77.00;15.10;96548.00;;;;5084042;28;20203;-86
2022/09/12 05:59:14;;;;;;;1.97;1.60;;;14.80;77.20;15.20;96555.00;;;;5093037;28;20222;-86
2022/09/12 06:01:42;;;;;;;2.07;1.80;;;14.80;77.40;15.20;96560.00;;;;5093360;28;20286;-86
2022/09/12 06:04:10;;;;;;;1.37;1.30;;;14.80;77.50;15.20;96556.00;;;;5092623;28;20202;-82
2022/09/12 06:06:40;;;;;;;1.70;1.53;;;14.90;77.60;15.30;96560.00;;;;5092417;28;20598;-85
2022/09/12 06:09:07;;;;;;;1.60;1.50;;;14.90;77.80;15.30;96560.00;;;;5092658;28;20184;-87
2022/09/12 06:11:39;;;;;;;1.37;1.27;;;15.00;77.90;15.40;96551.00;;;;5083954;28;20210;-85
2022/09/12 06:14:07;;;;;;;1.60;1.50;;;15.00;78.00;15.40;96557.00;;;;5078644;28;20763;-87
2022/09/12 06:16:36;;;;;;;1.50;1.40;;;15.10;78.10;15.50;96566.00;;;;5087917;28;20196;-86
2022/09/12 06:19:06;;;;;;;1.70;1.60;;;15.10;78.00;15.50;96560.00;;;;5088224;28;20246;-85
2022/09/12 06:21:35;;;;;;;3.80;2.00;;;15.10;78.10;15.60;96569.00;;;;5080613;28;20225;-85
2022/09/12 06:24:02;;;;;;;3.03;1.70;;;15.20;78.40;15.60;96567.00;;;;5091868;28;20671;-87
2022/09/12 06:26:30;;;;;;;2.97;1.60;;;15.20;78.60;15.60;96578.00;;;;5085438;28;20282;-85
2022/09/12 06:29:01;;;;;;;4.27;2.00;;;15.30;78.60;15.70;96574.00;;;;5082538;28;20234;-86
2022/09/12 06:31:30;;;;;;;2.63;1.90;;;15.40;78.80;15.70;96568.00;;;;5089564;28;20221;-87
2022/09/12 06:34:01;;;;;;;1.90;1.80;;;15.40;78.90;15.70;96566.00;;;;5091583;28;20244;-87
2022/09/12 06:36:32;;;;;;;1.70;1.60;;;15.40;78.90;15.80;96568.00;;;;5091084;28;20207;-87
2022/09/12 06:39:02;;;;;;;2.17;1.80;;;15.50;79.00;15.90;96562.00;;;;5090091;28;20231;-85
2022/09/12 06:41:32;;;;;;;1.90;1.60;;;15.50;79.00;15.90;96565.00;;;;5088918;28;20238;-85
2022/09/12 06:44:01;;;;;;;1.60;1.50;;;15.60;79.10;16.00;96560.00;;;;5087099;28;20270;-86
2022/09/12 06:46:30;;;;;;;2.37;2.17;;;15.70;79.10;16.10;96567.00;;;;5092880;28;20274;-87
2022/09/12 06:48:59;;;;;;;2.00;1.90;;;15.70;79.10;16.10;96571.00;;;;5092820;28;20203;-87
2022/09/12 06:51:28;;;;;;;1.53;1.43;;;15.80;79.10;16.20;96575.00;;;;5092260;28;20563;-87
2022/09/12 06:53:56;;;;;;;1.90;1.57;;;15.80;79.10;16.30;96574.00;;;;5092284;28;20215;-87
2022/09/12 06:56:25;;;;;;;2.00;1.70;;;15.90;79.90;16.30;96569.00;;;;5090392;28;20192;-86
2022/09/12 06:58:56;;;;;;;1.73;1.60;;;16.00;79.20;16.40;96569.00;;;;5091753;28;20208;-86
2022/09/12 07:01:27;;;;;;;1.73;1.53;;;16.00;79.20;16.50;96569.00;;;;5089332;28;20282;-86
2022/09/12 07:03:57;;;;;;;1.70;1.60;;;16.10;79.30;16.60;96564.00;;;;5087477;28;20283;-86
2022/09/12 07:06:30;;;;;;;1.60;1.50;;;16.10;79.30;16.60;96566.00;;;;5099951;28;20198;-88
2022/09/12 07:08:58;;;;;;;1.47;1.20;;;16.20;79.40;16.70;96566.00;;;;5085462;28;20207;-86
2022/09/12 07:11:29;;;;;;;2.37;1.60;;;16.30;79.50;16.80;96563.00;;;;5099371;28;20223;-86
2022/09/12 07:13:58;;;;;;;1.80;1.70;;;16.30;79.50;16.90;96566.00;;;;5086144;28;20195;-86
2022/09/12 07:16:26;;;;;;;1.47;1.37;;;16.40;79.50;16.90;96564.00;;;;5090190;28;20275;-87
2022/09/12 07:18:56;;;;;;;1.90;1.37;;;16.50;79.70;17.00;96561.00;;;;5087801;28;20210;-88
2022/09/12 07:21:24;;;;;;;1.40;1.30;;;16.60;79.80;17.10;96560.00;;;;5086545;28;20223;-87
2022/09/12 07:23:54;;;;;;;1.40;1.30;;;16.60;79.80;17.20;96572.00;;;;5089651;28;20223;-87
2022/09/12 07:26:23;;;;;;;1.47;1.37;;;16.70;80.00;17.40;96576.00;;;;5089951;28;20187;-85
2022/09/12 07:28:52;;;;;;;1.70;1.60;;;16.80;80.20;17.50;96565.00;;;;5082358;28;20211;-85
2022/09/12 07:31:22;;;;;;;2.33;2.13;;;16.90;80.30;17.70;96571.00;;;;5090338;28;20348;-88
2022/09/12 07:33:52;;;;;;;3.07;2.30;;;17.00;80.50;17.90;96570.00;;;;5089628;28;20243;-85
2022/09/12 07:36:24;;;;;;;2.63;1.80;;;17.20;80.70;18.00;96570.00;;;;5089505;28;20233;-87
2022/09/12 07:38:55;;;;;;;2.37;2.17;;;17.30;80.80;18.20;96572.00;;;;5090047;28;20270;-86
2022/09/12 07:41:25;;;;;;;2.30;1.70;;;17.40;80.70;18.30;96570.00;;;;5086571;28;20218;-87
2022/09/12 07:43:53;;;;;;;3.67;1.70;;;17.50;80.70;18.50;96566.00;;;;5081169;28;20582;-87
2022/09/12 07:46:21;;;;;;;2.17;2.07;;;17.70;80.80;18.70;96580.00;;;;5085536;28;20191;-88
2022/09/12 07:48:54;;;;;;;1.97;1.53;;;17.80;80.80;18.80;96584.00;;;;5090384;28;20191;-88
2022/09/12 07:51:23;;;;;;;1.57;1.47;;;18.00;80.80;19.00;96572.00;;;;5085383;28;20301;-87
2022/09/12 07:53:50;;;;;;;1.90;1.80;;;18.10;80.60;19.10;96578.00;;;;5085906;28;20227;-85
2022/09/12 07:56:19;;;;;;;2.40;2.20;;;18.30;80.40;19.30;96585.00;;;;5087791;28;20211;-86
2022/09/12 07:58:47;;;;;;;1.70;1.57;;;18.40;80.10;19.40;96584.00;;;;5088345;28;20218;-87
2022/09/12 08:01:17;;;;;;;1.80;1.70;;;18.50;79.70;19.60;96580.00;;;;5048402;28;1100149;-86
2022/09/12 08:03:47;;;;;;;1.73;1.63;;;18.70;79.50;19.70;96580.00;;;;5084829;28;20536;-86
2022/09/12 08:06:20;;;;;;;1.70;1.60;;;18.80;79.40;19.90;96575.00;;;;5082743;28;20289;-87
2022/09/12 08:08:48;;;;;;;1.97;1.80;;;19.00;79.40;20.00;96586.00;;;;5087156;28;20564;-88
2022/09/12 08:11:18;;;;;;;1.80;1.70;;;19.10;79.40;20.20;96590.00;;;;5087261;28;20676;-87
2022/09/12 08:13:46;;;;;;;1.70;1.60;;;19.30;79.30;20.40;96590.00;;;;5088482;28;20290;-88
2022/09/12 08:16:19;;;;;;;1.90;1.80;;;19.40;79.10;20.50;96589.00;;;;5088372;28;20675;-88
2022/09/12 08:18:47;;;;;;;1.77;1.67;;;19.50;78.80;20.70;96587.00;;;;5089964;28;20195;-88
2022/09/12 08:21:19;;;;;;;2.00;1.77;;;19.70;78.50;20.80;96598.00;;;;5086429;28;20303;-87
2022/09/12 08:23:47;;;;;;;1.50;1.40;;;19.80;78.10;21.00;96585.00;;;;5088133;28;20191;-87
2022/09/12 08:26:14;;;;;;;1.70;1.60;;;19.90;77.90;21.10;96587.00;;;;5089600;28;20187;-85
2022/09/12 08:28:45;;;;;;;1.37;1.27;;;20.10;77.70;21.20;96596.00;;;;5082108;28;20282;-89
2022/09/12 08:31:17;;;;;;;1.60;1.40;;;20.20;77.30;21.40;96598.00;;;;5086655;28;20677;-88
2022/09/12 08:33:45;;;;;;;1.53;1.43;;;20.40;77.20;21.50;96593.00;;;;5083948;28;20205;-87
2022/09/12 08:36:16;;;;;;;1.10;1.10;;;20.50;77.10;21.60;96600.00;;;;5087169;28;20199;-88
2022/09/12 08:38:46;;;;;;;1.57;1.47;;;20.60;76.60;21.80;96598.00;;;;5087556;28;20256;-88
2022/09/12 08:41:27;;;;;;;1.20;1.10;;;20.80;76.60;21.90;96604.00;;;;5089115;28;20231;-89
2022/09/12 08:44:29;;;;;;;2.30;1.70;;;20.90;76.20;22.10;96604.00;;;;5090711;28;20289;-88
2022/09/12 08:47:22;;;;;;;1.47;1.37;;;21.10;76.30;22.30;96610.00;;;;5086265;28;20206;-88
2022/09/12 08:50:02;;;;;;;1.87;1.77;;;21.20;74.30;22.40;96607.00;;;;5080062;28;20305;-88
2022/09/12 08:52:40;;;;;;;2.10;2.00;;;21.40;74.80;22.60;96601.00;;;;5089203;28;20206;-88
2022/09/12 08:55:26;;;;;;;2.07;1.87;;;21.50;74.50;22.70;96610.00;;;;5090840;28;20211;-87
2022/09/12 08:57:54;;;;;;;2.87;1.90;;;21.70;74.10;22.90;96599.00;;;;5087550;28;20201;-86
2022/09/12 09:00:24;;;;;;;1.90;1.80;;;21.80;73.90;23.00;96616.00;;;;5088611;28;20315;-86
2022/09/12 09:04:06;;;;;;;2.50;2.00;;;21.90;72.80;23.20;96605.00;;;;5092464;28;20195;-85
2022/09/12 09:06:58;;;;;;;2.80;1.83;;;22.10;73.20;23.40;96602.00;;;;5048975;28;20282;-85
2022/09/12 09:09:51;;;;;;;1.80;1.70;;;22.30;72.40;23.60;96615.00;;;;5094032;28;20254;-87
2022/09/12 09:12:32;;;;;;;2.10;2.00;;;22.40;72.80;23.80;96606.00;;;;5090990;28;20673;-87
2022/09/12 09:15:39;;;;;;;2.23;1.93;;;22.60;72.50;23.90;96604.00;;;;5093457;28;20227;-86
2022/09/12 09:18:17;;;;;;;1.63;1.53;;;22.70;72.20;24.10;96612.00;;;;5090773;28;20279;-86
2022/09/12 09:20:51;;;;;;;1.80;1.70;;;22.90;71.60;24.20;96612.00;;;;5091063;28;20216;-86
2022/09/12 09:23:27;;;;;;;1.60;1.50;;;23.00;71.60;24.40;96611.00;;;;5089170;28;20282;-86
2022/09/12 09:26:06;;;;;;;1.60;1.50;;;23.20;70.70;24.50;96609.00;;;;5094977;28;20200;-86
2022/09/12 09:28:42;;;;;;;1.70;1.60;;;23.30;70.60;24.60;96602.00;;;;5093335;28;20829;-86
2022/09/12 09:31:14;;;;;;;1.80;1.70;;;23.40;70.40;24.70;96605.00;;;;5091601;28;20215;-86
2022/09/12 09:33:42;;;;;;;1.33;1.23;;;23.50;70.10;24.80;96600.00;;;;5093855;28;20284;-87
2022/09/12 09:36:21;;;;;;;1.63;1.53;;;23.60;70.10;24.90;96591.00;;;;5093247;28;20194;-85
2022/09/12 09:38:54;;;;;;;1.60;1.50;;;23.70;69.50;25.00;96602.00;;;;5093577;28;20229;-86
2022/09/12 09:41:45;;;;;;;1.70;1.60;;;23.90;70.50;25.10;96608.00;;;;5092678;28;20207;-87
2022/09/12 09:44:13;;;;;;;1.83;1.50;;;24.00;68.80;25.30;96597.00;;;;5093694;28;20227;-87
2022/09/12 09:46:40;;;;;;;2.47;1.60;;;24.10;69.10;25.40;96602.00;;;;5091783;28;20194;-86
2022/09/12 09:49:10;;;;;;;1.70;1.60;;;24.20;67.60;25.50;96598.00;;;;5088742;28;20242;-86
2022/09/12 09:51:41;;;;;;;1.80;1.70;;;24.30;67.70;25.60;96603.00;;;;5084560;28;20236;-86
2022/09/12 09:54:19;;;;;;;1.93;1.80;;;24.50;67.90;25.80;96600.00;;;;5087844;28;20294;-86
2022/09/12 09:56:48;;;;;;;1.40;1.30;;;24.60;67.20;25.90;96595.00;;;;5090668;28;20230;-86
2022/09/12 09:59:26;;;;;;;2.90;1.70;;;24.70;67.00;26.10;96603.00;;;;5091573;28;20791;-88
2022/09/12 10:01:56;;;;;;;1.63;1.53;;;24.90;67.10;26.30;96591.00;;;;5082963;28;20290;-86
2022/09/12 10:04:26;;;;;;;1.63;1.53;;;25.10;66.10;26.40;96596.00;;;;5089617;28;20199;-88
2022/09/12 10:06:57;;;;;;;1.83;1.73;;;25.20;65.80;26.60;96597.00;;;;5084159;28;20195;-88
2022/09/12 10:09:27;;;;;;;1.80;1.70;;;25.30;66.00;26.70;96592.00;;;;5092305;28;20247;-88
2022/09/12 10:11:57;;;;;;;1.77;1.53;;;25.50;64.90;26.80;96596.00;;;;5085460;28;20276;-88
2022/09/12 10:14:35;;;;;;;1.67;1.57;;;25.60;64.60;27.00;96592.00;;;;5092164;28;20562;-88
2022/09/12 10:17:24;;;;;;;1.83;1.73;;;25.80;64.40;27.10;96585.00;;;;5085773;28;20237;-88
2022/09/12 10:19:55;;;;;;;1.60;1.50;;;26.00;63.50;27.20;96584.00;;;;5089566;28;20219;-88
2022/09/12 10:22:27;;;;;;;2.13;2.03;;;26.10;62.30;27.30;96587.00;;;;5077713;28;20680;-87
2022/09/12 10:24:58;;;;;;;1.60;1.50;;;26.30;62.50;27.40;96587.00;;;;5088143;28;20195;-87
2022/09/12 10:27:33;;;;;;;1.40;1.30;;;26.40;62.30;27.40;96589.00;;;;5089354;28;20199;-88
2022/09/12 10:30:05;;;;;;;1.70;1.60;;;26.50;61.70;27.50;96585.00;;;;5090030;28;20206;-87
2022/09/12 10:32:41;;;;;;;1.87;1.77;;;26.70;61.40;27.60;96577.00;;;;5091872;28;20251;-87
2022/09/12 10:35:19;;;;;;;1.57;1.47;;;26.80;60.90;27.70;96576.00;;;;5092380;28;20206;-86
2022/09/12 10:37:59;;;;;;;1.27;1.20;;;27.00;60.60;27.80;96566.00;;;;5092679;28;20233;-88
2022/09/12 10:40:30;;;;;;;1.30;1.23;;;27.10;60.80;27.90;96571.00;;;;5092922;28;20680;-87
2022/09/12 10:43:02;;;;;;;1.27;1.17;;;27.20;60.60;27.90;96568.00;;;;5087849;28;20223;-87
2022/09/12 10:45:34;;;;;;;1.23;0.93;;;27.30;59.50;27.90;96576.00;;;;5087232;28;20195;-87
2022/09/12 10:48:22;;;;;;;1.00;1.00;;;27.30;60.00;28.00;96576.00;;;;5086912;28;20200;-87
2022/09/12 10:50:49;;;;;;;1.30;1.00;;;27.40;59.60;27.90;96576.00;;;;5091144;28;20215;-86
2022/09/12 10:53:21;;;;;;;1.03;1.00;;;27.40;59.00;27.90;96574.00;;;;5092850;28;20203;-87
2022/09/12 10:56:05;;;;;;;1.10;1.10;;;27.40;58.00;27.70;96567.00;;;;5088425;28;20307;-87
2022/09/12 10:59:12;;;;;;;1.00;0.93;;;27.30;57.20;27.60;96569.00;;;;5090229;28;20277;-87
2022/09/12 11:01:45;;;;;;;1.10;0.97;;;27.20;56.70;27.50;96573.00;;;;5085963;28;20203;-87
2022/09/12 11:04:28;;;;;;;0.80;0.80;;;27.10;57.40;27.40;96567.00;;;;5090275;28;20199;-86
2022/09/12 11:07:25;;;;;;;0.80;0.80;;;27.00;57.20;27.30;96569.00;;;;5090113;28;20206;-87
2022/09/12 11:10:03;;;;;;;1.77;0.80;;;26.90;56.60;27.10;96575.00;;;;5090771;28;20215;-87
2022/09/12 11:12:43;;;;;;;0.80;0.80;;;26.80;56.00;27.00;96571.00;;;;5095253;28;20688;-87
2022/09/12 11:15:40;;;;;;;0.80;0.80;;;26.70;55.70;26.90;96572.00;;;;5091292;28;20252;-87
2022/09/12 11:18:25;;;;;;;1.00;1.00;;;26.50;56.20;26.80;96564.00;;;;5087216;28;20195;-86
2022/09/12 11:21:14;;;;;;;0.80;0.80;;;26.40;56.40;26.70;96562.00;;;;5083750;28;20299;-87